sensor_id;sensor_type;location;lat;lon;timestamp;P1;durP1;ratioP1;P2;durP2;ratioP2
22363;SDS011;11349;53.412;-1.328;2022-07-29T00:00:06;4.53;;;1.15;;
22363;SDS011;11349;53.412;-1.328;2022-07-29T00:02:34;2.78;;;1.00;;
22363;SDS011;11349;53.412;-1.328;2022-07-29T00:05:00;4.10;;;1.45;;
22363;SDS011;11349;53.412;-1.328;2022-07-29T00:07:26;4.88;;;0.88;;
22363;SDS011;11349;53.412;-1.328;2022-07-29T00:09:52;3.53;;;1.00;;
22363;SDS011;11349;53.412;-1.328;2022-07-29T00:12:19;2.17;;;1.00;;
22363;SDS011;11349;53.412;-1.328;2022-07-29T00:14:46;3.95;;;1.02;;
22363;SDS011;11349;53.412;-1.328;2022-07-29T00:17:12;3.58;;;0.93;;
22363;SDS011;11349;53.412;-1.328;2022-07-29T00:19:38;7.32;;;1.10;;
22363;SDS011;11349;53.412;-1.328;2022-07-29T00:22:04;4.72;;;1.20;;
22363;SDS011;11349;53.412;-1.328;2022-07-29T00:24:29;3.28;;;1.05;;
22363;SDS011;11349;53.412;-1.328;2022-07-29T00:26:56;5.78;;;1.38;;
22363;SDS011;11349;53.412;-1.328;2022-07-29T00:29:22;4.90;;;1.00;;
22363;SDS011;11349;53.412;-1.328;2022-07-29T00:31:48;4.13;;;0.93;;
22363;SDS011;11349;53.412;-1.328;2022-07-29T00:34:14;3.55;;;0.90;;
22363;SDS011;11349;53.412;-1.328;2022-07-29T00:36:59;5.57;;;1.20;;
22363;SDS011;11349;53.412;-1.328;2022-07-29T00:39:24;4.70;;;1.30;;
22363;SDS011;11349;53.412;-1.328;2022-07-29T00:41:50;2.47;;;0.85;;
22363;SDS011;11349;53.412;-1.328;2022-07-29T00:44:16;3.95;;;1.00;;
22363;SDS011;11349;53.412;-1.328;2022-07-29T00:46:42;2.78;;;1.02;;
22363;SDS011;11349;53.412;-1.328;2022-07-29T00:49:08;4.57;;;1.08;;
22363;SDS011;11349;53.412;-1.328;2022-07-29T00:51:37;3.83;;;0.93;;
22363;SDS011;11349;53.412;-1.328;2022-07-29T00:54:04;4.13;;;1.25;;
22363;SDS011;11349;53.412;-1.328;2022-07-29T00:56:30;3.25;;;0.90;;
22363;SDS011;11349;53.412;-1.328;2022-07-29T00:58:57;2.85;;;0.90;;
22363;SDS011;11349;53.412;-1.328;2022-07-29T01:01:24;5.38;;;0.98;;
22363;SDS011;11349;53.412;-1.328;2022-07-29T01:03:50;6.55;;;1.13;;
22363;SDS011;11349;53.412;-1.328;2022-07-29T01:06:18;2.50;;;0.90;;
22363;SDS011;11349;53.412;-1.328;2022-07-29T01:08:45;4.70;;;1.50;;
22363;SDS011;11349;53.412;-1.328;2022-07-29T01:11:14;4.72;;;1.10;;
22363;SDS011;11349;53.412;-1.328;2022-07-29T01:13:41;4.68;;;1.17;;
22363;SDS011;11349;53.412;-1.328;2022-07-29T01:16:18;4.40;;;1.35;;
22363;SDS011;11349;53.412;-1.328;2022-07-29T01:18:51;3.40;;;0.95;;
22363;SDS011;11349;53.412;-1.328;2022-07-29T01:30:27;4.65;;;1.17;;
22363;SDS011;11349;53.412;-1.328;2022-07-29T01:32:58;3.55;;;1.17;;
22363;SDS011;11349;53.412;-1.328;2022-07-29T01:35:28;6.03;;;1.38;;
22363;SDS011;11349;53.412;-1.328;2022-07-29T01:38:20;5.35;;;1.70;;
22363;SDS011;11349;53.412;-1.328;2022-07-29T01:40:54;4.88;;;1.10;;
22363;SDS011;11349;53.412;-1.328;2022-07-29T01:46:25;2.88;;;1.00;;
22363;SDS011;11349;53.412;-1.328;2022-07-29T01:49:08;2.88;;;1.00;;
22363;SDS011;11349;53.412;-1.328;2022-07-29T01:51:46;5.18;;;1.50;;
22363;SDS011;11349;53.412;-1.328;2022-07-29T01:54:48;4.70;;;0.95;;
22363;SDS011;11349;53.412;-1.328;2022-07-29T01:57:19;3.70;;;1.17;;
22363;SDS011;11349;53.412;-1.328;2022-07-29T01:59:50;3.22;;;1.33;;
22363;SDS011;11349;53.412;-1.328;2022-07-29T02:02:17;5.80;;;1.02;;
22363;SDS011;11349;53.412;-1.328;2022-07-29T02:04:44;9.85;;;1.50;;
22363;SDS011;11349;53.412;-1.328;2022-07-29T02:07:15;4.18;;;1.33;;
22363;SDS011;11349;53.412;-1.328;2022-07-29T02:09:44;4.15;;;1.52;;
22363;SDS011;11349;53.412;-1.328;2022-07-29T02:12:12;4.03;;;1.52;;
22363;SDS011;11349;53.412;-1.328;2022-07-29T02:14:45;3.50;;;1.20;;
22363;SDS011;11349;53.412;-1.328;2022-07-29T02:17:15;4.50;;;1.30;;
22363;SDS011;11349;53.412;-1.328;2022-07-29T02:19:46;3.95;;;1.38;;
22363;SDS011;11349;53.412;-1.328;2022-07-29T02:22:14;5.55;;;1.27;;
22363;SDS011;11349;53.412;-1.328;2022-07-29T02:24:41;8.05;;;1.23;;
22363;SDS011;11349;53.412;-1.328;2022-07-29T02:27:09;4.63;;;1.33;;
22363;SDS011;11349;53.412;-1.328;2022-07-29T02:29:36;2.50;;;1.10;;
22363;SDS011;11349;53.412;-1.328;2022-07-29T02:32:04;9.85;;;1.52;;
22363;SDS011;11349;53.412;-1.328;2022-07-29T02:34:34;6.22;;;1.40;;
22363;SDS011;11349;53.412;-1.328;2022-07-29T02:37:03;6.25;;;1.67;;
22363;SDS011;11349;53.412;-1.328;2022-07-29T02:39:30;3.95;;;1.35;;
22363;SDS011;11349;53.412;-1.328;2022-07-29T02:41:58;4.15;;;1.48;;
22363;SDS011;11349;53.412;-1.328;2022-07-29T02:44:29;5.28;;;1.42;;
22363;SDS011;11349;53.412;-1.328;2022-07-29T02:54:58;3.50;;;1.35;;
22363;SDS011;11349;53.412;-1.328;2022-07-29T02:57:35;4.35;;;1.23;;
22363;SDS011;11349;53.412;-1.328;2022-07-29T03:00:07;5.57;;;1.58;;
22363;SDS011;11349;53.412;-1.328;2022-07-29T03:02:38;9.52;;;1.90;;
22363;SDS011;11349;53.412;-1.328;2022-07-29T03:05:07;5.43;;;1.73;;
22363;SDS011;11349;53.412;-1.328;2022-07-29T03:07:38;7.22;;;3.22;;
22363;SDS011;11349;53.412;-1.328;2022-07-29T03:10:06;6.57;;;2.35;;
22363;SDS011;11349;53.412;-1.328;2022-07-29T03:12:33;8.40;;;2.22;;
22363;SDS011;11349;53.412;-1.328;2022-07-29T03:15:00;4.93;;;2.00;;
22363;SDS011;11349;53.412;-1.328;2022-07-29T03:17:27;4.13;;;1.67;;
22363;SDS011;11349;53.412;-1.328;2022-07-29T03:19:55;5.40;;;1.75;;
22363;SDS011;11349;53.412;-1.328;2022-07-29T03:22:21;6.30;;;1.60;;
22363;SDS011;11349;53.412;-1.328;2022-07-29T03:24:47;6.60;;;1.63;;
22363;SDS011;11349;53.412;-1.328;2022-07-29T03:27:13;7.80;;;1.55;;
22363;SDS011;11349;53.412;-1.328;2022-07-29T03:29:39;2.50;;;1.20;;
22363;SDS011;11349;53.412;-1.328;2022-07-29T03:32:05;5.65;;;1.50;;
22363;SDS011;11349;53.412;-1.328;2022-07-29T03:34:31;9.75;;;2.70;;
22363;SDS011;11349;53.412;-1.328;2022-07-29T03:36:57;4.57;;;1.40;;
22363;SDS011;11349;53.412;-1.328;2022-07-29T03:39:24;6.80;;;1.48;;
22363;SDS011;11349;53.412;-1.328;2022-07-29T03:41:55;5.38;;;1.58;;
22363;SDS011;11349;53.412;-1.328;2022-07-29T03:44:23;5.07;;;1.45;;
22363;SDS011;11349;53.412;-1.328;2022-07-29T03:46:51;6.32;;;1.40;;
22363;SDS011;11349;53.412;-1.328;2022-07-29T03:49:19;4.13;;;1.20;;
22363;SDS011;11349;53.412;-1.328;2022-07-29T03:51:48;6.05;;;1.25;;
22363;SDS011;11349;53.412;-1.328;2022-07-29T03:54:15;7.85;;;1.52;;
22363;SDS011;11349;53.412;-1.328;2022-07-29T03:56:42;6.97;;;1.65;;
22363;SDS011;11349;53.412;-1.328;2022-07-29T03:59:15;5.30;;;1.10;;
22363;SDS011;11349;53.412;-1.328;2022-07-29T04:01:44;5.15;;;1.40;;
22363;SDS011;11349;53.412;-1.328;2022-07-29T04:04:11;7.18;;;1.70;;
22363;SDS011;11349;53.412;-1.328;2022-07-29T04:06:38;5.68;;;1.60;;
22363;SDS011;11349;53.412;-1.328;2022-07-29T04:09:08;4.18;;;1.60;;
22363;SDS011;11349;53.412;-1.328;2022-07-29T04:11:35;7.70;;;1.40;;
22363;SDS011;11349;53.412;-1.328;2022-07-29T04:14:03;3.88;;;1.27;;
22363;SDS011;11349;53.412;-1.328;2022-07-29T04:16:29;6.07;;;1.42;;
22363;SDS011;11349;53.412;-1.328;2022-07-29T04:18:54;4.53;;;1.17;;
22363;SDS011;11349;53.412;-1.328;2022-07-29T04:21:20;5.82;;;1.13;;
22363;SDS011;11349;53.412;-1.328;2022-07-29T04:23:46;15.70;;;2.95;;
22363;SDS011;11349;53.412;-1.328;2022-07-29T04:26:18;6.75;;;1.73;;
22363;SDS011;11349;53.412;-1.328;2022-07-29T04:28:44;3.13;;;1.50;;
22363;SDS011;11349;53.412;-1.328;2022-07-29T04:31:12;3.58;;;1.40;;
22363;SDS011;11349;53.412;-1.328;2022-07-29T04:33:38;5.57;;;1.27;;
22363;SDS011;11349;53.412;-1.328;2022-07-29T04:36:04;5.82;;;1.90;;
22363;SDS011;11349;53.412;-1.328;2022-07-29T04:38:30;10.18;;;1.63;;
22363;SDS011;11349;53.412;-1.328;2022-07-29T04:40:56;5.80;;;1.35;;
22363;SDS011;11349;53.412;-1.328;2022-07-29T04:43:22;8.38;;;1.67;;
22363;SDS011;11349;53.412;-1.328;2022-07-29T04:45:48;7.07;;;2.15;;
22363;SDS011;11349;53.412;-1.328;2022-07-29T04:48:14;4.13;;;1.20;;
22363;SDS011;11349;53.412;-1.328;2022-07-29T04:50:40;7.63;;;1.50;;
22363;SDS011;11349;53.412;-1.328;2022-07-29T04:53:06;4.82;;;1.70;;
22363;SDS011;11349;53.412;-1.328;2022-07-29T04:55:33;4.82;;;1.42;;
22363;SDS011;11349;53.412;-1.328;2022-07-29T04:57:59;3.50;;;1.45;;
22363;SDS011;11349;53.412;-1.328;2022-07-29T05:00:25;4.88;;;1.63;;
22363;SDS011;11349;53.412;-1.328;2022-07-29T05:02:51;5.85;;;1.65;;
22363;SDS011;11349;53.412;-1.328;2022-07-29T05:05:16;5.88;;;1.40;;
22363;SDS011;11349;53.412;-1.328;2022-07-29T05:07:42;6.47;;;1.67;;
22363;SDS011;11349;53.412;-1.328;2022-07-29T05:10:08;5.80;;;1.48;;
22363;SDS011;11349;53.412;-1.328;2022-07-29T05:12:34;5.47;;;1.35;;
22363;SDS011;11349;53.412;-1.328;2022-07-29T05:15:01;5.40;;;1.70;;
22363;SDS011;11349;53.412;-1.328;2022-07-29T05:17:26;6.07;;;1.35;;
22363;SDS011;11349;53.412;-1.328;2022-07-29T05:19:52;3.45;;;1.83;;
22363;SDS011;11349;53.412;-1.328;2022-07-29T05:22:18;3.55;;;1.20;;
22363;SDS011;11349;53.412;-1.328;2022-07-29T05:24:45;2.40;;;0.98;;
22363;SDS011;11349;53.412;-1.328;2022-07-29T05:27:11;6.55;;;2.70;;
22363;SDS011;11349;53.412;-1.328;2022-07-29T05:29:37;5.85;;;1.45;;
22363;SDS011;11349;53.412;-1.328;2022-07-29T05:32:03;6.82;;;1.30;;
22363;SDS011;11349;53.412;-1.328;2022-07-29T05:34:30;5.43;;;1.38;;
22363;SDS011;11349;53.412;-1.328;2022-07-29T05:36:56;5.95;;;2.08;;
22363;SDS011;11349;53.412;-1.328;2022-07-29T05:39:22;4.88;;;1.50;;
22363;SDS011;11349;53.412;-1.328;2022-07-29T05:41:48;5.30;;;1.35;;
22363;SDS011;11349;53.412;-1.328;2022-07-29T05:44:14;3.13;;;1.63;;
22363;SDS011;11349;53.412;-1.328;2022-07-29T05:46:40;6.10;;;1.70;;
22363;SDS011;11349;53.412;-1.328;2022-07-29T05:49:06;4.18;;;1.52;;
22363;SDS011;11349;53.412;-1.328;2022-07-29T05:51:33;5.40;;;1.83;;
22363;SDS011;11349;53.412;-1.328;2022-07-29T05:53:59;3.30;;;1.55;;
22363;SDS011;11349;53.412;-1.328;2022-07-29T05:56:24;5.75;;;1.98;;
22363;SDS011;11349;53.412;-1.328;2022-07-29T05:58:50;11.13;;;2.20;;
22363;SDS011;11349;53.412;-1.328;2022-07-29T06:01:16;7.88;;;1.73;;
22363;SDS011;11349;53.412;-1.328;2022-07-29T06:03:42;6.03;;;1.75;;
22363;SDS011;11349;53.412;-1.328;2022-07-29T06:06:09;6.00;;;2.35;;
22363;SDS011;11349;53.412;-1.328;2022-07-29T06:08:35;5.72;;;1.77;;
22363;SDS011;11349;53.412;-1.328;2022-07-29T06:11:01;8.10;;;2.03;;
22363;SDS011;11349;53.412;-1.328;2022-07-29T06:13:28;5.30;;;1.85;;
22363;SDS011;11349;53.412;-1.328;2022-07-29T06:15:55;6.55;;;1.88;;
22363;SDS011;11349;53.412;-1.328;2022-07-29T06:18:21;4.95;;;1.70;;
22363;SDS011;11349;53.412;-1.328;2022-07-29T06:20:52;8.80;;;1.98;;
22363;SDS011;11349;53.412;-1.328;2022-07-29T06:23:19;6.93;;;2.00;;
22363;SDS011;11349;53.412;-1.328;2022-07-29T06:25:45;6.55;;;2.70;;
22363;SDS011;11349;53.412;-1.328;2022-07-29T06:28:11;8.80;;;2.33;;
22363;SDS011;11349;53.412;-1.328;2022-07-29T06:30:38;7.28;;;2.20;;
22363;SDS011;11349;53.412;-1.328;2022-07-29T06:33:04;4.60;;;2.00;;
22363;SDS011;11349;53.412;-1.328;2022-07-29T06:35:30;7.05;;;2.38;;
22363;SDS011;11349;53.412;-1.328;2022-07-29T06:38:00;11.63;;;2.40;;
22363;SDS011;11349;53.412;-1.328;2022-07-29T06:40:26;8.60;;;2.60;;
22363;SDS011;11349;53.412;-1.328;2022-07-29T06:43:11;6.53;;;2.40;;
22363;SDS011;11349;53.412;-1.328;2022-07-29T06:45:36;4.57;;;2.10;;
22363;SDS011;11349;53.412;-1.328;2022-07-29T06:48:06;7.85;;;2.20;;
22363;SDS011;11349;53.412;-1.328;2022-07-29T06:50:32;6.20;;;2.20;;
22363;SDS011;11349;53.412;-1.328;2022-07-29T06:52:58;8.52;;;2.28;;
22363;SDS011;11349;53.412;-1.328;2022-07-29T06:55:23;5.28;;;2.30;;
22363;SDS011;11349;53.412;-1.328;2022-07-29T06:57:49;9.82;;;2.78;;
22363;SDS011;11349;53.412;-1.328;2022-07-29T07:00:16;8.02;;;2.72;;
22363;SDS011;11349;53.412;-1.328;2022-07-29T07:02:42;7.78;;;2.35;;
22363;SDS011;11349;53.412;-1.328;2022-07-29T07:05:08;7.07;;;2.22;;
22363;SDS011;11349;53.412;-1.328;2022-07-29T07:07:33;7.45;;;2.30;;
22363;SDS011;11349;53.412;-1.328;2022-07-29T07:09:59;8.30;;;2.45;;
22363;SDS011;11349;53.412;-1.328;2022-07-29T07:12:25;7.10;;;2.30;;
22363;SDS011;11349;53.412;-1.328;2022-07-29T07:14:51;8.30;;;2.92;;
22363;SDS011;11349;53.412;-1.328;2022-07-29T07:17:17;7.88;;;2.72;;
22363;SDS011;11349;53.412;-1.328;2022-07-29T07:19:42;5.30;;;2.40;;
22363;SDS011;11349;53.412;-1.328;2022-07-29T07:22:10;5.22;;;1.75;;
22363;SDS011;11349;53.412;-1.328;2022-07-29T07:24:35;5.53;;;2.10;;
22363;SDS011;11349;53.412;-1.328;2022-07-29T07:27:02;6.65;;;2.55;;
22363;SDS011;11349;53.412;-1.328;2022-07-29T07:29:28;6.65;;;2.47;;
22363;SDS011;11349;53.412;-1.328;2022-07-29T07:31:53;9.57;;;2.38;;
22363;SDS011;11349;53.412;-1.328;2022-07-29T07:34:20;8.65;;;1.98;;
22363;SDS011;11349;53.412;-1.328;2022-07-29T07:36:46;5.80;;;2.50;;
22363;SDS011;11349;53.412;-1.328;2022-07-29T07:39:12;8.00;;;2.30;;
22363;SDS011;11349;53.412;-1.328;2022-07-29T07:41:37;6.63;;;2.00;;
22363;SDS011;11349;53.412;-1.328;2022-07-29T07:44:03;7.40;;;1.95;;
22363;SDS011;11349;53.412;-1.328;2022-07-29T07:46:29;8.90;;;2.22;;
22363;SDS011;11349;53.412;-1.328;2022-07-29T07:48:55;6.20;;;1.92;;
22363;SDS011;11349;53.412;-1.328;2022-07-29T07:51:21;5.78;;;2.13;;
22363;SDS011;11349;53.412;-1.328;2022-07-29T07:53:46;4.68;;;1.90;;
22363;SDS011;11349;53.412;-1.328;2022-07-29T07:56:15;6.97;;;2.05;;
22363;SDS011;11349;53.412;-1.328;2022-07-29T07:58:41;5.35;;;1.95;;
22363;SDS011;11349;53.412;-1.328;2022-07-29T08:01:07;7.72;;;2.08;;
22363;SDS011;11349;53.412;-1.328;2022-07-29T08:03:34;6.57;;;2.33;;
22363;SDS011;11349;53.412;-1.328;2022-07-29T08:06:00;7.82;;;2.20;;
22363;SDS011;11349;53.412;-1.328;2022-07-29T08:08:26;8.15;;;2.25;;
22363;SDS011;11349;53.412;-1.328;2022-07-29T08:10:52;6.82;;;2.53;;
22363;SDS011;11349;53.412;-1.328;2022-07-29T08:13:22;5.10;;;1.88;;
22363;SDS011;11349;53.412;-1.328;2022-07-29T08:15:50;9.35;;;2.72;;
22363;SDS011;11349;53.412;-1.328;2022-07-29T08:18:26;9.70;;;2.50;;
22363;SDS011;11349;53.412;-1.328;2022-07-29T08:20:53;6.07;;;2.78;;
22363;SDS011;11349;53.412;-1.328;2022-07-29T08:23:19;4.70;;;3.00;;
22363;SDS011;11349;53.412;-1.328;2022-07-29T08:25:45;5.90;;;2.15;;
22363;SDS011;11349;53.412;-1.328;2022-07-29T08:28:11;7.95;;;2.03;;
22363;SDS011;11349;53.412;-1.328;2022-07-29T08:30:37;7.22;;;2.33;;
22363;SDS011;11349;53.412;-1.328;2022-07-29T08:33:03;5.95;;;2.22;;
22363;SDS011;11349;53.412;-1.328;2022-07-29T08:35:29;7.40;;;2.05;;
22363;SDS011;11349;53.412;-1.328;2022-07-29T08:37:55;10.48;;;2.38;;
22363;SDS011;11349;53.412;-1.328;2022-07-29T08:40:22;5.57;;;1.73;;
22363;SDS011;11349;53.412;-1.328;2022-07-29T08:42:49;8.13;;;2.00;;
22363;SDS011;11349;53.412;-1.328;2022-07-29T08:45:15;7.38;;;1.85;;
22363;SDS011;11349;53.412;-1.328;2022-07-29T08:47:42;4.63;;;1.40;;
22363;SDS011;11349;53.412;-1.328;2022-07-29T08:50:09;4.88;;;1.65;;
22363;SDS011;11349;53.412;-1.328;2022-07-29T08:52:37;8.95;;;1.80;;
22363;SDS011;11349;53.412;-1.328;2022-07-29T08:55:09;6.90;;;1.98;;
22363;SDS011;11349;53.412;-1.328;2022-07-29T08:57:35;6.85;;;2.10;;
22363;SDS011;11349;53.412;-1.328;2022-07-29T09:00:04;5.32;;;1.70;;
22363;SDS011;11349;53.412;-1.328;2022-07-29T09:02:33;3.63;;;1.58;;
22363;SDS011;11349;53.412;-1.328;2022-07-29T09:05:04;6.25;;;1.90;;
22363;SDS011;11349;53.412;-1.328;2022-07-29T09:07:30;4.97;;;2.25;;
22363;SDS011;11349;53.412;-1.328;2022-07-29T09:09:57;5.13;;;1.88;;
22363;SDS011;11349;53.412;-1.328;2022-07-29T09:12:24;6.57;;;2.03;;
22363;SDS011;11349;53.412;-1.328;2022-07-29T09:14:50;9.38;;;2.35;;
22363;SDS011;11349;53.412;-1.328;2022-07-29T09:17:16;6.60;;;2.00;;
22363;SDS011;11349;53.412;-1.328;2022-07-29T09:19:43;5.78;;;2.10;;
22363;SDS011;11349;53.412;-1.328;2022-07-29T09:22:09;6.45;;;1.92;;
22363;SDS011;11349;53.412;-1.328;2022-07-29T09:29:45;6.43;;;2.20;;
22363;SDS011;11349;53.412;-1.328;2022-07-29T09:32:11;6.72;;;2.00;;
22363;SDS011;11349;53.412;-1.328;2022-07-29T09:34:37;7.53;;;2.20;;
22363;SDS011;11349;53.412;-1.328;2022-07-29T09:37:04;7.00;;;2.45;;
22363;SDS011;11349;53.412;-1.328;2022-07-29T09:39:34;6.72;;;2.72;;
22363;SDS011;11349;53.412;-1.328;2022-07-29T09:42:03;8.57;;;2.20;;
22363;SDS011;11349;53.412;-1.328;2022-07-29T09:47:10;9.63;;;2.38;;
22363;SDS011;11349;53.412;-1.328;2022-07-29T09:50:09;10.45;;;3.15;;
22363;SDS011;11349;53.412;-1.328;2022-07-29T09:52:29;8.10;;;3.03;;
22363;SDS011;11349;53.412;-1.328;2022-07-29T09:55:05;8.73;;;2.65;;
22363;SDS011;11349;53.412;-1.328;2022-07-29T09:57:32;6.97;;;2.20;;
22363;SDS011;11349;53.412;-1.328;2022-07-29T09:59:59;10.07;;;3.00;;
22363;SDS011;11349;53.412;-1.328;2022-07-29T10:02:30;9.82;;;2.70;;
22363;SDS011;11349;53.412;-1.328;2022-07-29T10:04:58;7.20;;;3.10;;
22363;SDS011;11349;53.412;-1.328;2022-07-29T10:07:26;6.90;;;3.20;;
22363;SDS011;11349;53.412;-1.328;2022-07-29T10:10:07;10.63;;;3.00;;
22363;SDS011;11349;53.412;-1.328;2022-07-29T10:12:33;7.70;;;3.13;;
22363;SDS011;11349;53.412;-1.328;2022-07-29T10:15:12;9.05;;;2.60;;
22363;SDS011;11349;53.412;-1.328;2022-07-29T10:17:40;8.30;;;3.03;;
22363;SDS011;11349;53.412;-1.328;2022-07-29T10:20:07;9.00;;;2.85;;
22363;SDS011;11349;53.412;-1.328;2022-07-29T10:22:33;7.82;;;2.80;;
22363;SDS011;11349;53.412;-1.328;2022-07-29T10:24:59;7.75;;;2.70;;
22363;SDS011;11349;53.412;-1.328;2022-07-29T10:27:25;5.20;;;2.10;;
22363;SDS011;11349;53.412;-1.328;2022-07-29T10:29:51;7.95;;;2.35;;
22363;SDS011;11349;53.412;-1.328;2022-07-29T10:32:25;7.00;;;2.40;;
22363;SDS011;11349;53.412;-1.328;2022-07-29T10:35:12;6.10;;;2.00;;
22363;SDS011;11349;53.412;-1.328;2022-07-29T10:43:38;6.35;;;2.22;;
22363;SDS011;11349;53.412;-1.328;2022-07-29T10:46:08;4.65;;;1.80;;
22363;SDS011;11349;53.412;-1.328;2022-07-29T10:54:18;4.32;;;1.95;;
22363;SDS011;11349;53.412;-1.328;2022-07-29T11:05:14;5.95;;;2.03;;
22363;SDS011;11349;53.412;-1.328;2022-07-29T11:10:38;6.65;;;2.75;;
22363;SDS011;11349;53.412;-1.328;2022-07-29T11:13:04;6.25;;;1.75;;
22363;SDS011;11349;53.412;-1.328;2022-07-29T11:15:51;4.20;;;1.70;;
22363;SDS011;11349;53.412;-1.328;2022-07-29T11:18:23;5.63;;;1.70;;
22363;SDS011;11349;53.412;-1.328;2022-07-29T11:20:49;4.88;;;1.95;;
22363;SDS011;11349;53.412;-1.328;2022-07-29T11:23:25;5.47;;;1.58;;
22363;SDS011;11349;53.412;-1.328;2022-07-29T11:39:39;3.92;;;1.58;;
22363;SDS011;11349;53.412;-1.328;2022-07-29T11:47:36;6.43;;;1.60;;
22363;SDS011;11349;53.412;-1.328;2022-07-29T11:50:12;3.70;;;1.23;;
22363;SDS011;11349;53.412;-1.328;2022-07-29T11:52:44;5.57;;;2.25;;
22363;SDS011;11349;53.412;-1.328;2022-07-29T11:55:14;6.45;;;1.70;;
22363;SDS011;11349;53.412;-1.328;2022-07-29T11:57:45;6.32;;;1.75;;
22363;SDS011;11349;53.412;-1.328;2022-07-29T12:03:23;4.05;;;1.55;;
22363;SDS011;11349;53.412;-1.328;2022-07-29T12:05:52;3.85;;;1.63;;
22363;SDS011;11349;53.412;-1.328;2022-07-29T12:08:20;6.93;;;1.38;;
22363;SDS011;11349;53.412;-1.328;2022-07-29T12:10:47;3.20;;;1.35;;
22363;SDS011;11349;53.412;-1.328;2022-07-29T12:13:16;4.22;;;1.40;;
22363;SDS011;11349;53.412;-1.328;2022-07-29T12:15:51;6.55;;;1.60;;
22363;SDS011;11349;53.412;-1.328;2022-07-29T12:18:18;5.00;;;1.70;;
22363;SDS011;11349;53.412;-1.328;2022-07-29T12:20:45;4.30;;;1.85;;
22363;SDS011;11349;53.412;-1.328;2022-07-29T12:23:11;9.25;;;1.95;;
22363;SDS011;11349;53.412;-1.328;2022-07-29T12:25:39;5.68;;;1.90;;
22363;SDS011;11349;53.412;-1.328;2022-07-29T12:28:07;5.40;;;1.90;;
22363;SDS011;11349;53.412;-1.328;2022-07-29T12:30:35;7.00;;;1.92;;
22363;SDS011;11349;53.412;-1.328;2022-07-29T12:33:25;8.75;;;2.08;;
22363;SDS011;11349;53.412;-1.328;2022-07-29T12:35:53;6.45;;;2.03;;
22363;SDS011;11349;53.412;-1.328;2022-07-29T12:38:21;5.18;;;2.00;;
22363;SDS011;11349;53.412;-1.328;2022-07-29T12:40:48;6.40;;;1.98;;
22363;SDS011;11349;53.412;-1.328;2022-07-29T12:43:19;6.28;;;1.40;;
22363;SDS011;11349;53.412;-1.328;2022-07-29T12:45:47;7.82;;;2.10;;
22363;SDS011;11349;53.412;-1.328;2022-07-29T12:48:14;7.53;;;1.75;;
22363;SDS011;11349;53.412;-1.328;2022-07-29T12:50:57;3.58;;;1.38;;
22363;SDS011;11349;53.412;-1.328;2022-07-29T12:53:25;3.35;;;1.42;;
22363;SDS011;11349;53.412;-1.328;2022-07-29T12:55:51;4.88;;;1.63;;
22363;SDS011;11349;53.412;-1.328;2022-07-29T12:58:52;8.00;;;1.60;;
22363;SDS011;11349;53.412;-1.328;2022-07-29T13:01:20;4.38;;;1.50;;
22363;SDS011;11349;53.412;-1.328;2022-07-29T13:03:53;5.70;;;1.83;;
22363;SDS011;11349;53.412;-1.328;2022-07-29T13:14:13;3.63;;;1.48;;
22363;SDS011;11349;53.412;-1.328;2022-07-29T13:22:00;3.20;;;1.30;;
22363;SDS011;11349;53.412;-1.328;2022-07-29T13:24:26;5.75;;;1.55;;
22363;SDS011;11349;53.412;-1.328;2022-07-29T13:26:52;4.65;;;1.38;;
22363;SDS011;11349;53.412;-1.328;2022-07-29T13:29:17;4.13;;;1.42;;
22363;SDS011;11349;53.412;-1.328;2022-07-29T13:31:43;4.63;;;1.75;;
22363;SDS011;11349;53.412;-1.328;2022-07-29T13:34:09;3.78;;;1.40;;
22363;SDS011;11349;53.412;-1.328;2022-07-29T13:36:35;4.60;;;1.52;;
22363;SDS011;11349;53.412;-1.328;2022-07-29T13:39:01;7.25;;;2.22;;
22363;SDS011;11349;53.412;-1.328;2022-07-29T13:41:28;3.55;;;1.63;;
22363;SDS011;11349;53.412;-1.328;2022-07-29T13:43:54;5.63;;;1.55;;
22363;SDS011;11349;53.412;-1.328;2022-07-29T13:46:20;5.75;;;1.20;;
22363;SDS011;11349;53.412;-1.328;2022-07-29T13:48:46;5.93;;;1.40;;
22363;SDS011;11349;53.412;-1.328;2022-07-29T13:51:12;6.57;;;1.45;;
22363;SDS011;11349;53.412;-1.328;2022-07-29T13:53:38;4.22;;;1.25;;
22363;SDS011;11349;53.412;-1.328;2022-07-29T13:56:03;4.53;;;1.52;;
22363;SDS011;11349;53.412;-1.328;2022-07-29T13:58:32;6.38;;;2.00;;
22363;SDS011;11349;53.412;-1.328;2022-07-29T14:00:58;6.90;;;2.20;;
22363;SDS011;11349;53.412;-1.328;2022-07-29T14:03:24;5.00;;;1.58;;
22363;SDS011;11349;53.412;-1.328;2022-07-29T14:05:50;6.30;;;1.90;;
22363;SDS011;11349;53.412;-1.328;2022-07-29T14:08:16;6.68;;;1.83;;
22363;SDS011;11349;53.412;-1.328;2022-07-29T14:10:42;6.10;;;2.25;;
22363;SDS011;11349;53.412;-1.328;2022-07-29T14:13:08;3.38;;;1.48;;
22363;SDS011;11349;53.412;-1.328;2022-07-29T14:15:34;4.13;;;1.60;;
22363;SDS011;11349;53.412;-1.328;2022-07-29T14:18:00;6.13;;;1.77;;
22363;SDS011;11349;53.412;-1.328;2022-07-29T14:20:27;7.10;;;2.08;;
22363;SDS011;11349;53.412;-1.328;2022-07-29T14:22:55;6.43;;;1.73;;
22363;SDS011;11349;53.412;-1.328;2022-07-29T14:25:21;6.43;;;2.03;;
22363;SDS011;11349;53.412;-1.328;2022-07-29T14:27:47;7.78;;;1.90;;
22363;SDS011;11349;53.412;-1.328;2022-07-29T14:30:13;4.82;;;1.58;;
22363;SDS011;11349;53.412;-1.328;2022-07-29T14:32:39;6.45;;;2.10;;
22363;SDS011;11349;53.412;-1.328;2022-07-29T14:35:06;9.63;;;1.60;;
22363;SDS011;11349;53.412;-1.328;2022-07-29T14:37:32;4.00;;;1.40;;
22363;SDS011;11349;53.412;-1.328;2022-07-29T14:40:00;4.68;;;1.30;;
22363;SDS011;11349;53.412;-1.328;2022-07-29T14:42:28;5.05;;;1.55;;
22363;SDS011;11349;53.412;-1.328;2022-07-29T14:44:54;7.22;;;1.52;;
22363;SDS011;11349;53.412;-1.328;2022-07-29T14:47:20;6.60;;;1.58;;
22363;SDS011;11349;53.412;-1.328;2022-07-29T14:49:46;5.40;;;1.38;;
22363;SDS011;11349;53.412;-1.328;2022-07-29T14:52:12;5.05;;;1.30;;
22363;SDS011;11349;53.412;-1.328;2022-07-29T14:54:38;6.22;;;1.50;;
22363;SDS011;11349;53.412;-1.328;2022-07-29T14:57:03;8.77;;;1.98;;
22363;SDS011;11349;53.412;-1.328;2022-07-29T14:59:29;6.10;;;2.15;;
22363;SDS011;11349;53.412;-1.328;2022-07-29T15:01:55;4.97;;;1.30;;
22363;SDS011;11349;53.412;-1.328;2022-07-29T15:04:21;5.45;;;1.50;;
22363;SDS011;11349;53.412;-1.328;2022-07-29T15:06:47;3.55;;;1.45;;
22363;SDS011;11349;53.412;-1.328;2022-07-29T15:09:12;3.33;;;1.42;;
22363;SDS011;11349;53.412;-1.328;2022-07-29T15:11:38;3.78;;;1.30;;
22363;SDS011;11349;53.412;-1.328;2022-07-29T15:14:04;5.47;;;1.50;;
22363;SDS011;11349;53.412;-1.328;2022-07-29T15:16:30;4.18;;;1.40;;
22363;SDS011;11349;53.412;-1.328;2022-07-29T15:18:56;6.82;;;1.67;;
22363;SDS011;11349;53.412;-1.328;2022-07-29T15:21:23;4.90;;;1.52;;
22363;SDS011;11349;53.412;-1.328;2022-07-29T15:23:48;6.05;;;1.80;;
22363;SDS011;11349;53.412;-1.328;2022-07-29T15:26:14;6.20;;;1.75;;
22363;SDS011;11349;53.412;-1.328;2022-07-29T15:28:40;6.93;;;1.90;;
22363;SDS011;11349;53.412;-1.328;2022-07-29T15:31:06;5.25;;;1.70;;
22363;SDS011;11349;53.412;-1.328;2022-07-29T15:33:32;5.28;;;1.73;;
22363;SDS011;11349;53.412;-1.328;2022-07-29T15:35:57;7.40;;;1.65;;
22363;SDS011;11349;53.412;-1.328;2022-07-29T15:38:23;4.60;;;1.25;;
22363;SDS011;11349;53.412;-1.328;2022-07-29T15:40:49;9.65;;;2.28;;
22363;SDS011;11349;53.412;-1.328;2022-07-29T15:43:14;9.43;;;2.42;;
22363;SDS011;11349;53.412;-1.328;2022-07-29T15:45:41;4.25;;;1.75;;
22363;SDS011;11349;53.412;-1.328;2022-07-29T15:48:27;4.95;;;1.40;;
22363;SDS011;11349;53.412;-1.328;2022-07-29T15:50:53;4.38;;;1.20;;
22363;SDS011;11349;53.412;-1.328;2022-07-29T15:53:18;4.88;;;1.40;;
22363;SDS011;11349;53.412;-1.328;2022-07-29T15:55:44;4.85;;;1.60;;
22363;SDS011;11349;53.412;-1.328;2022-07-29T15:58:10;3.13;;;1.30;;
22363;SDS011;11349;53.412;-1.328;2022-07-29T16:00:36;6.32;;;1.40;;
22363;SDS011;11349;53.412;-1.328;2022-07-29T16:03:01;4.20;;;1.77;;